createdAt,value
2022-09-26T00:00:37.458Z,2.55
2022-09-26T00:01:42.914Z,2.33
2022-09-26T00:02:45.227Z,2.08
2022-09-26T00:03:50.556Z,2.10
2022-09-26T00:04:53.625Z,2.45
2022-09-26T00:06:01.757Z,2.20
2022-09-26T00:07:03.816Z,2.08
2022-09-26T00:08:08.198Z,2.40
2022-09-26T00:09:10.603Z,2.10
2022-09-26T00:10:14.992Z,2.10
2022-09-26T00:11:19.375Z,2.35
2022-09-26T00:12:22.421Z,2.28
2022-09-26T00:13:24.552Z,2.00
2022-09-26T00:14:29.941Z,2.17
2022-09-26T00:15:32.057Z,2.05
2022-09-26T00:16:35.915Z,2.30
2022-09-26T00:17:38.260Z,1.90
2022-09-26T00:18:41.957Z,1.85
2022-09-26T00:19:44.058Z,2.10
2022-09-26T00:20:47.107Z,2.00
2022-09-26T00:21:49.363Z,2.08
2022-09-26T00:22:52.399Z,2.03
2022-09-26T00:23:55.497Z,2.22
2022-09-26T00:24:58.555Z,2.08
2022-09-26T00:26:02.282Z,2.25
2022-09-26T00:27:05.353Z,2.10
2022-09-26T00:28:07.364Z,2.28
2022-09-26T00:29:13.456Z,2.15
2022-09-26T00:30:15.611Z,2.10
2022-09-26T00:31:21.577Z,2.30
2022-09-26T00:32:23.685Z,2.17
2022-09-26T00:33:26.691Z,2.10
2022-09-26T00:34:29.694Z,2.15
2022-09-26T00:35:31.771Z,1.90
2022-09-26T00:36:38.520Z,2.00
2022-09-26T00:37:40.795Z,1.98
2022-09-26T00:38:44.969Z,1.80
2022-09-26T00:39:47.101Z,2.20
2022-09-26T00:40:51.077Z,2.40
2022-09-26T00:41:55.875Z,2.03
2022-09-26T00:42:58.635Z,1.95
2022-09-26T00:44:02.521Z,2.28
2022-09-26T00:45:05.369Z,2.10
2022-09-26T00:46:22.703Z,2.50
2022-09-26T00:47:35.557Z,1.90
2022-09-26T00:48:41.391Z,2.28
2022-09-26T00:49:45.347Z,2.10
2022-09-26T00:50:49.486Z,2.25
2022-09-26T00:51:55.973Z,2.00
2022-09-26T00:53:04.358Z,1.88
2022-09-26T00:54:11.211Z,2.10
2022-09-26T00:55:18.791Z,2.45
2022-09-26T00:56:25.665Z,2.20
2022-09-26T00:57:34.586Z,2.10
2022-09-26T00:58:41.665Z,2.42
2022-09-26T00:59:48.477Z,2.30
2022-09-26T01:00:51.465Z,2.00
2022-09-26T01:01:57.349Z,2.30
2022-09-26T01:03:00.631Z,2.45
2022-09-26T01:04:04.879Z,2.20
2022-09-26T01:05:08.520Z,2.30
2022-09-26T01:06:12.206Z,2.78
2022-09-26T01:07:18.282Z,2.25
2022-09-26T01:08:26.563Z,2.30
2022-09-26T01:09:30.537Z,2.25
2022-09-26T01:10:35.443Z,2.40
2022-09-26T01:11:39.617Z,2.25
2022-09-26T01:12:44.473Z,2.50
2022-09-26T01:13:48.078Z,2.22
2022-09-26T01:14:54.186Z,2.70
2022-09-26T01:15:57.088Z,2.33
2022-09-26T01:17:00.904Z,2.22
2022-09-26T01:18:03.388Z,2.72
2022-09-26T01:19:18.537Z,2.55
2022-09-26T01:20:29.404Z,2.50
2022-09-26T01:23:17.125Z,2.30
2022-09-26T01:24:41.269Z,2.15
2022-09-26T01:26:05.400Z,2.25
2022-09-26T01:27:37.813Z,2.38
2022-09-26T01:28:58.094Z,2.47
2022-09-26T01:30:07.637Z,2.17
2022-09-26T01:31:31.361Z,2.35
2022-09-26T01:33:07.624Z,2.45
2022-09-26T01:34:18.207Z,2.55
2022-09-26T01:35:45.059Z,2.28
2022-09-26T01:37:03.369Z,2.35
2022-09-26T01:38:20.176Z,2.75
2022-09-26T01:39:41.144Z,2.53
2022-09-26T01:41:56.891Z,2.30
2022-09-26T01:43:07.652Z,2.65
2022-09-26T01:45:26.588Z,2.17
2022-09-26T01:46:36.326Z,2.38
2022-09-26T01:47:42.576Z,2.25
2022-09-26T01:48:50.815Z,2.42
2022-09-26T01:49:58.718Z,2.75
2022-09-26T01:51:06.910Z,2.50
2022-09-26T01:52:17.410Z,2.78
2022-09-26T01:53:26.095Z,2.70
2022-09-26T01:54:38.636Z,2.72
2022-09-26T01:55:46.169Z,2.60
2022-09-26T01:56:53.566Z,2.55
2022-09-26T01:58:03.434Z,2.88
2022-09-26T01:59:09.739Z,2.60
2022-09-26T02:00:12.744Z,2.60
2022-09-26T02:01:23.617Z,2.70
2022-09-26T02:02:29.147Z,2.70
2022-09-26T02:03:38.025Z,2.38
2022-09-26T02:04:44.731Z,2.75
2022-09-26T02:05:53.414Z,2.65
2022-09-26T02:07:00.482Z,2.42
2022-09-26T02:08:08.457Z,2.70
2022-09-26T02:09:15.265Z,2.60
2022-09-26T02:10:24.246Z,2.92
2022-09-26T02:11:26.918Z,2.42
2022-09-26T02:12:34.087Z,2.95
2022-09-26T02:13:41.707Z,2.83
2022-09-26T02:14:48.497Z,2.70
2022-09-26T02:15:56.184Z,3.03
2022-09-26T02:17:06.713Z,2.97
2022-09-26T02:18:15.247Z,2.97
2022-09-26T02:19:24.185Z,2.80
2022-09-26T02:20:30.730Z,2.70
2022-09-26T02:21:33.855Z,3.40
2022-09-26T02:22:36.148Z,2.92
2022-09-26T02:23:39.326Z,2.80
2022-09-26T02:24:41.450Z,3.08
2022-09-26T02:25:44.786Z,2.97
2022-09-26T02:26:46.948Z,2.97
2022-09-26T02:27:50.697Z,3.00
2022-09-26T02:28:53.056Z,3.65
2022-09-26T02:29:57.569Z,2.80
2022-09-26T02:31:01.527Z,2.72
2022-09-26T02:32:15.536Z,2.67
2022-09-26T02:33:17.980Z,3.20
2022-09-26T02:34:21.070Z,2.70
2022-09-26T02:35:42.282Z,3.22
2022-09-26T02:36:46.411Z,2.63
2022-09-26T02:37:48.811Z,2.85
2022-09-26T02:38:51.899Z,2.90
2022-09-26T02:40:12.477Z,3.08
2022-09-26T02:41:23.913Z,2.70
2022-09-26T02:42:33.321Z,2.78
2022-09-26T02:43:45.574Z,2.88
2022-09-26T02:45:25.911Z,2.70
2022-09-26T02:46:43.697Z,2.40
2022-09-26T02:48:08.209Z,2.72
2022-09-26T02:49:26.483Z,2.72
2022-09-26T02:50:47.874Z,2.80
2022-09-26T02:52:08.920Z,2.70
2022-09-26T02:53:23.741Z,2.78
2022-09-26T02:54:39.961Z,2.80
2022-09-26T02:55:52.736Z,3.10
2022-09-26T02:57:11.095Z,2.60
2022-09-26T02:58:20.630Z,2.47
2022-09-26T02:59:35.060Z,3.00
2022-09-26T03:00:49.354Z,2.90
2022-09-26T03:02:00.846Z,2.45
2022-09-26T03:03:13.540Z,2.67
2022-09-26T03:04:27.073Z,2.60
2022-09-26T03:05:32.174Z,2.70
2022-09-26T03:06:39.610Z,3.20
2022-09-26T03:07:46.834Z,2.47
2022-09-26T03:08:49.808Z,2.80
2022-09-26T03:09:55.648Z,2.53
2022-09-26T03:11:05.231Z,3.00
2022-09-26T03:12:10.096Z,3.08
2022-09-26T03:13:16.072Z,2.67
2022-09-26T03:14:21.102Z,2.67
2022-09-26T03:15:24.542Z,2.80
2022-09-26T03:16:31.783Z,2.58
2022-09-26T03:17:36.958Z,2.70
2022-09-26T03:18:46.922Z,2.63
2022-09-26T03:19:53.446Z,2.83
2022-09-26T03:20:56.696Z,2.75
2022-09-26T03:22:00.106Z,2.70
2022-09-26T03:23:04.158Z,2.50
2022-09-26T03:24:07.030Z,2.85
2022-09-26T03:25:12.588Z,2.90
2022-09-26T03:26:24.606Z,2.78
2022-09-26T03:27:35.795Z,2.20
2022-09-26T03:28:38.303Z,2.70
2022-09-26T03:29:41.907Z,2.45
2022-09-26T03:30:49.849Z,2.90
2022-09-26T03:32:00.481Z,2.95
2022-09-26T03:33:03.346Z,2.60
2022-09-26T03:34:08.441Z,2.88
2022-09-26T03:35:13.760Z,2.58
2022-09-26T03:36:17.006Z,2.60
2022-09-26T03:37:19.145Z,2.60
2022-09-26T03:38:22.268Z,2.67
2022-09-26T03:39:32.849Z,2.50
2022-09-26T03:40:51.034Z,2.92
2022-09-26T03:43:36.830Z,2.97
2022-09-26T03:44:39.928Z,2.67
2022-09-26T03:45:47.652Z,2.83
2022-09-26T03:46:56.286Z,2.60
2022-09-26T03:47:58.666Z,2.88
2022-09-26T03:49:01.987Z,2.60
2022-09-26T03:50:06.458Z,3.00
2022-09-26T03:51:11.764Z,2.58
2022-09-26T03:52:13.992Z,2.60
2022-09-26T03:53:18.889Z,2.83
2022-09-26T03:54:21.158Z,2.60
2022-09-26T03:55:25.063Z,3.00
2022-09-26T03:56:27.203Z,2.80
2022-09-26T03:57:30.250Z,2.65
2022-09-26T03:58:39.677Z,2.90
2022-09-26T03:59:43.295Z,3.10
2022-09-26T04:00:46.635Z,2.78
2022-09-26T04:01:50.251Z,2.65
2022-09-26T04:02:52.502Z,2.72
2022-09-26T04:04:08.594Z,3.20
2022-09-26T04:05:14.432Z,3.20
2022-09-26T04:06:20.234Z,2.90
2022-09-26T04:07:23.724Z,3.00
2022-09-26T04:08:25.800Z,2.88
2022-09-26T04:09:29.435Z,2.92
2022-09-26T04:10:31.556Z,2.85
2022-09-26T04:11:34.783Z,3.25
2022-09-26T04:12:36.838Z,3.08
2022-09-26T04:13:51.174Z,2.70
2022-09-26T04:14:56.027Z,3.30
2022-09-26T04:15:59.845Z,2.80
2022-09-26T04:17:03.181Z,2.70
2022-09-26T04:18:09.962Z,3.13
2022-09-26T04:19:13.137Z,3.00
2022-09-26T04:20:17.085Z,2.92
2022-09-26T04:21:20.370Z,2.85
2022-09-26T04:22:22.657Z,3.10
2022-09-26T04:23:26.018Z,3.20
2022-09-26T04:24:29.259Z,3.38
2022-09-26T04:25:31.660Z,2.92
2022-09-26T04:26:34.714Z,3.03
2022-09-26T04:27:38.442Z,3.10
2022-09-26T04:28:42.344Z,2.97
2022-09-26T04:29:45.158Z,2.85
2022-09-26T04:30:53.384Z,3.08
2022-09-26T04:31:55.857Z,3.10
2022-09-26T04:33:05.643Z,2.95
2022-09-26T04:34:11.242Z,3.10
2022-09-26T04:35:14.624Z,2.97
2022-09-26T04:36:18.687Z,3.22
2022-09-26T04:37:22.531Z,3.00
2022-09-26T04:38:24.871Z,2.97
2022-09-26T04:39:28.104Z,2.80
2022-09-26T04:40:31.537Z,2.72
2022-09-26T04:41:42.008Z,3.25
2022-09-26T04:42:44.076Z,2.90
2022-09-26T04:43:47.537Z,3.08
2022-09-26T04:44:51.704Z,3.20
2022-09-26T04:45:54.877Z,3.30
2022-09-26T04:46:57.003Z,2.88
2022-09-26T04:48:10.219Z,2.80
2022-09-26T04:49:48.692Z,3.17
2022-09-26T04:50:51.168Z,3.13
2022-09-26T04:51:55.818Z,2.90
2022-09-26T04:53:00.395Z,3.28
2022-09-26T04:54:03.476Z,3.00
2022-09-26T04:55:11.443Z,3.00
2022-09-26T04:56:16.228Z,3.47
2022-09-26T04:57:19.980Z,2.90
2022-09-26T04:58:23.361Z,3.25
2022-09-26T04:59:26.590Z,3.13
2022-09-26T05:00:34.494Z,2.70
2022-09-26T05:01:40.740Z,2.90
2022-09-26T05:02:48.434Z,3.17
2022-09-26T05:03:51.525Z,3.17
2022-09-26T05:04:53.554Z,2.83
2022-09-26T05:05:56.771Z,3.10
2022-09-26T05:07:01.854Z,3.00
2022-09-26T05:08:07.217Z,3.03
2022-09-26T05:09:10.417Z,3.40
2022-09-26T05:10:38.611Z,3.30
2022-09-26T05:11:40.909Z,3.13
2022-09-26T05:12:46.724Z,3.08
2022-09-26T05:13:53.624Z,3.03
2022-09-26T05:14:56.649Z,3.38
2022-09-26T05:16:00.999Z,3.30
2022-09-26T05:17:04.829Z,4.30
2022-09-26T05:18:08.646Z,3.00
2022-09-26T05:19:12.815Z,3.03
2022-09-26T05:20:29.298Z,2.90
2022-09-26T05:21:35.655Z,3.05
2022-09-26T05:22:39.586Z,3.47
2022-09-26T05:24:00.301Z,3.22
2022-09-26T05:25:20.881Z,2.95
2022-09-26T05:26:26.857Z,2.80
2022-09-26T05:27:28.966Z,3.10
2022-09-26T05:28:32.104Z,3.08
2022-09-26T05:29:35.301Z,3.17
2022-09-26T05:30:41.109Z,2.90
2022-09-26T05:31:44.606Z,2.92
2022-09-26T05:32:48.392Z,3.00
2022-09-26T05:33:52.138Z,2.88
2022-09-26T05:34:56.211Z,3.08
2022-09-26T05:35:59.442Z,3.38
2022-09-26T05:37:02.988Z,3.13
2022-09-26T05:38:06.561Z,3.30
2022-09-26T05:39:26.395Z,3.08
2022-09-26T05:40:47.559Z,3.00
2022-09-26T05:41:51.634Z,2.80
2022-09-26T05:43:00.498Z,2.95
2022-09-26T05:44:04.337Z,3.17
2022-09-26T05:45:09.578Z,2.95
2022-09-26T05:46:13.162Z,2.90
2022-09-26T05:47:21.849Z,3.00
2022-09-26T05:48:25.323Z,2.90
2022-09-26T05:49:27.891Z,2.90
2022-09-26T05:50:31.233Z,2.80
2022-09-26T05:51:34.352Z,3.10
2022-09-26T05:52:36.818Z,3.03
2022-09-26T05:53:42.812Z,3.35
2022-09-26T05:54:44.926Z,2.83
2022-09-26T05:56:07.454Z,2.65
2022-09-26T05:57:29.778Z,2.65
2022-09-26T05:58:34.357Z,2.47
2022-09-26T05:59:52.630Z,2.88
2022-09-26T06:01:21.886Z,2.65
2022-09-26T06:02:31.567Z,2.80
2022-09-26T06:03:52.264Z,2.70
2022-09-26T06:05:00.146Z,2.75
2022-09-26T06:06:20.903Z,2.40
2022-09-26T06:07:29.236Z,2.90
2022-09-26T06:08:33.301Z,2.50
2022-09-26T06:09:59.729Z,3.10
2022-09-26T06:11:55.845Z,2.60
2022-09-26T06:13:01.081Z,2.80
2022-09-26T06:14:04.466Z,2.60
2022-09-26T06:15:09.544Z,2.60
2022-09-26T06:16:16.007Z,2.63
2022-09-26T06:17:18.250Z,3.00
2022-09-26T06:18:21.703Z,2.47
2022-09-26T06:19:24.196Z,2.45
2022-09-26T06:20:27.639Z,2.80
2022-09-26T06:21:31.691Z,2.78
2022-09-26T06:22:40.547Z,2.65
2022-09-26T06:23:44.333Z,2.63
2022-09-26T06:24:54.383Z,2.65
2022-09-26T06:25:59.197Z,2.40
2022-09-26T06:27:01.277Z,2.40
2022-09-26T06:28:04.322Z,2.80
2022-09-26T06:29:07.600Z,2.47
2022-09-26T06:30:12.057Z,2.53
2022-09-26T06:31:17.066Z,3.13
2022-09-26T06:32:39.230Z,2.90
2022-09-26T06:33:55.338Z,2.92
2022-09-26T06:35:30.447Z,2.75
2022-09-26T06:36:39.849Z,2.75
2022-09-26T06:37:41.952Z,2.70
2022-09-26T06:38:45.033Z,2.65
2022-09-26T06:39:54.607Z,2.50
2022-09-26T06:41:01.765Z,2.70
2022-09-26T06:42:05.748Z,2.75
2022-09-26T06:43:49.154Z,2.45
2022-09-26T06:45:23.879Z,2.58
2022-09-26T06:47:00.968Z,2.40
2022-09-26T06:48:09.119Z,2.30
2022-09-26T06:49:35.439Z,2.58
2022-09-26T06:50:43.701Z,2.60
2022-09-26T06:51:46.811Z,2.35
2022-09-26T06:52:50.016Z,2.53
2022-09-26T06:53:52.979Z,2.70
2022-09-26T06:55:00.880Z,2.72
2022-09-26T06:56:05.081Z,2.75
2022-09-26T06:57:12.851Z,2.33
2022-09-26T06:58:17.337Z,2.50
2022-09-26T06:59:28.576Z,2.67
2022-09-26T07:00:41.746Z,2.85
2022-09-26T07:02:01.283Z,2.60
2022-09-26T07:03:26.933Z,2.25
2022-09-26T07:04:41.378Z,2.60
2022-09-26T07:05:55.629Z,2.60
2022-09-26T07:07:00.242Z,2.83
2022-09-26T07:08:04.252Z,2.45
2022-09-26T07:09:11.242Z,2.55
2022-09-26T07:10:38.457Z,2.55
2022-09-26T07:12:12.792Z,3.00
2022-09-26T07:13:11.235Z,2.50
2022-09-26T07:14:16.944Z,2.53
2022-09-26T07:15:27.568Z,2.80
2022-09-26T07:16:30.522Z,2.65
2022-09-26T07:18:07.374Z,2.70
2022-09-26T07:19:29.922Z,2.60
2022-09-26T07:20:42.818Z,2.60
2022-09-26T07:22:18.705Z,2.67
2022-09-26T07:23:27.652Z,2.15
2022-09-26T07:24:29.698Z,2.45
2022-09-26T07:25:33.493Z,2.50
2022-09-26T07:26:37.029Z,2.58
2022-09-26T07:27:42.257Z,2.85
2022-09-26T07:28:44.791Z,2.47
2022-09-26T07:29:48.926Z,2.47
2022-09-26T07:30:57.125Z,2.38
2022-09-26T07:32:14.001Z,2.38
2022-09-26T07:33:36.331Z,2.50
2022-09-26T07:34:43.978Z,2.47
2022-09-26T07:35:48.323Z,2.75
2022-09-26T07:36:51.752Z,2.95
2022-09-26T07:37:53.846Z,2.65
2022-09-26T07:38:57.199Z,2.50
2022-09-26T07:40:01.559Z,2.65
2022-09-26T07:41:10.756Z,2.28
2022-09-26T07:45:56.216Z,2.15
2022-09-26T07:47:17.048Z,2.60
2022-09-26T07:48:38.126Z,2.50
2022-09-26T07:50:16.533Z,2.47
2022-09-26T07:51:33.562Z,2.53
2022-09-26T07:52:39.327Z,2.50
2022-09-26T07:54:00.546Z,2.67
2022-09-26T07:55:29.886Z,2.88
2022-09-26T07:56:34.570Z,2.78
2022-09-26T07:57:55.906Z,2.92
2022-09-26T07:59:18.768Z,3.00
2022-09-26T08:00:33.331Z,2.70
2022-09-26T08:01:55.737Z,2.60
2022-09-26T08:03:07.198Z,3.22
2022-09-26T08:04:18.690Z,2.85
2022-09-26T08:05:21.007Z,3.58
2022-09-26T08:06:26.029Z,2.70
2022-09-26T08:07:28.133Z,3.17
2022-09-26T08:08:41.403Z,2.67
2022-09-26T08:10:19.228Z,3.17
2022-09-26T08:11:41.858Z,3.40
2022-09-26T08:12:56.788Z,3.15
2022-09-26T08:14:08.820Z,3.45
2022-09-26T08:15:24.673Z,3.38
2022-09-26T08:16:41.448Z,3.30
2022-09-26T08:17:44.969Z,3.53
2022-09-26T08:18:48.322Z,3.75
2022-09-26T08:19:50.411Z,3.17
2022-09-26T08:20:53.549Z,3.72
2022-09-26T08:21:56.228Z,3.63
2022-09-26T08:22:59.403Z,3.80
2022-09-26T08:24:02.217Z,3.60
2022-09-26T08:25:09.819Z,3.92
2022-09-26T08:26:30.276Z,3.45
2022-09-26T08:27:47.601Z,3.80
2022-09-26T08:28:49.709Z,3.83
2022-09-26T08:29:53.829Z,3.80
2022-09-26T08:30:58.089Z,3.97
2022-09-26T08:32:03.402Z,4.05
2022-09-26T08:33:12.499Z,4.03
2022-09-26T08:34:14.782Z,4.10
2022-09-26T08:35:21.839Z,4.65
2022-09-26T08:36:28.205Z,5.00
2022-09-26T08:37:46.212Z,4.18
2022-09-26T08:39:07.769Z,4.50
2022-09-26T08:40:41.190Z,4.50
2022-09-26T08:42:13.787Z,4.88
2022-09-26T08:44:00.031Z,4.50
2022-09-26T08:46:00.149Z,4.63
2022-09-26T08:47:28.403Z,4.18
2022-09-26T08:50:33.318Z,4.30
2022-09-26T08:51:40.419Z,4.57
2022-09-26T08:52:51.232Z,4.20
2022-09-26T08:53:57.677Z,4.93
2022-09-26T08:55:07.076Z,4.60
2022-09-26T08:56:19.214Z,4.10
2022-09-26T08:57:32.093Z,4.82
2022-09-26T08:58:41.022Z,4.45
2022-09-26T08:59:46.921Z,4.65
2022-09-26T09:00:55.483Z,4.50
2022-09-26T09:02:05.081Z,4.35
2022-09-26T09:03:28.676Z,4.78
2022-09-26T09:04:41.374Z,4.78
2022-09-26T09:05:48.720Z,4.35
2022-09-26T09:06:59.796Z,4.47
2022-09-26T09:09:12.736Z,4.35
2022-09-26T09:10:49.439Z,4.13
2022-09-26T09:12:20.630Z,4.80
2022-09-26T09:13:46.069Z,5.22
2022-09-26T09:15:26.472Z,4.97
2022-09-26T09:17:08.155Z,4.45
2022-09-26T09:18:43.671Z,5.38
2022-09-26T09:20:33.746Z,5.47
2022-09-26T09:22:08.911Z,4.75
2022-09-26T09:24:08.703Z,4.30
2022-09-26T09:25:17.543Z,4.22
2022-09-26T09:28:10.960Z,4.90
2022-09-26T09:30:53.287Z,4.80
2022-09-26T09:32:35.674Z,4.43
2022-09-26T09:34:15.992Z,4.32
2022-09-26T09:35:43.631Z,4.45
2022-09-26T09:37:00.498Z,4.53
2022-09-26T09:38:29.409Z,5.28
2022-09-26T09:39:54.192Z,4.80
2022-09-26T09:41:05.537Z,4.60
2022-09-26T09:42:17.602Z,4.35
2022-09-26T09:43:28.786Z,4.18
2022-09-26T09:44:46.458Z,4.30
2022-09-26T09:45:51.616Z,3.90
2022-09-26T09:46:54.792Z,4.45
2022-09-26T09:47:58.752Z,3.80
2022-09-26T09:49:18.777Z,9.88
2022-09-26T09:50:39.975Z,16.65
2022-09-26T09:51:52.688Z,5.07
2022-09-26T09:53:06.268Z,3.83
2022-09-26T09:54:26.681Z,3.72
2022-09-26T09:55:41.626Z,5.47
2022-09-26T09:56:58.286Z,3.53
2022-09-26T09:58:35.653Z,4.43
2022-09-26T10:00:02.860Z,3.00
2022-09-26T10:01:21.875Z,3.22
2022-09-26T10:02:34.949Z,3.50
2022-09-26T10:03:47.587Z,3.88
2022-09-26T10:04:59.344Z,3.00
2022-09-26T10:06:06.573Z,3.63
2022-09-26T10:07:17.037Z,2.70
2022-09-26T10:08:36.767Z,2.88
2022-09-26T10:09:44.897Z,2.85
2022-09-26T10:11:30.344Z,3.03
2022-09-26T10:12:35.105Z,2.75
2022-09-26T10:14:16.775Z,2.67
2022-09-26T10:15:45.707Z,2.70
2022-09-26T10:17:21.463Z,2.47
2022-09-26T10:18:59.407Z,2.78
2022-09-26T10:20:10.390Z,2.40
2022-09-26T10:21:16.395Z,2.42
2022-09-26T10:22:32.691Z,2.70
2022-09-26T10:23:40.293Z,2.63
2022-09-26T10:24:48.377Z,2.65
2022-09-26T10:26:03.780Z,2.92
2022-09-26T10:27:15.361Z,2.40
2022-09-26T10:28:29.148Z,2.90
2022-09-26T10:29:35.859Z,2.85
2022-09-26T10:30:50.089Z,3.13
2022-09-26T10:32:00.334Z,2.70
2022-09-26T10:33:05.045Z,3.05
2022-09-26T10:34:24.677Z,2.88
2022-09-26T10:35:41.166Z,3.00
2022-09-26T10:36:43.447Z,3.08
2022-09-26T10:37:58.504Z,3.08
2022-09-26T10:39:20.568Z,3.10
2022-09-26T10:40:47.097Z,3.40
2022-09-26T10:41:59.187Z,2.55
2022-09-26T10:43:20.248Z,2.50
2022-09-26T10:44:28.647Z,2.72
2022-09-26T10:45:39.819Z,2.60
2022-09-26T10:47:08.272Z,3.03
2022-09-26T10:48:47.958Z,3.17
2022-09-26T10:50:14.164Z,2.78
2022-09-26T10:51:46.678Z,2.70
2022-09-26T10:52:58.341Z,2.95
2022-09-26T10:54:09.376Z,2.90
2022-09-26T10:55:16.760Z,3.10
2022-09-26T10:56:26.293Z,3.22
2022-09-26T10:57:35.993Z,2.90
2022-09-26T10:58:42.927Z,3.20
2022-09-26T10:59:49.160Z,3.08
2022-09-26T11:00:51.754Z,2.80
2022-09-26T11:02:03.726Z,2.80
2022-09-26T11:03:10.847Z,3.00
2022-09-26T11:04:56.333Z,2.55
2022-09-26T11:06:26.642Z,2.70
2022-09-26T11:07:38.616Z,2.75
2022-09-26T11:09:04.257Z,2.45
2022-09-26T11:10:32.538Z,2.53
2022-09-26T11:11:52.459Z,2.67
2022-09-26T11:13:01.289Z,2.40
2022-09-26T11:14:07.583Z,2.70
2022-09-26T11:15:13.134Z,2.70
2022-09-26T11:16:20.277Z,2.53
2022-09-26T11:17:47.442Z,2.70
2022-09-26T11:18:59.119Z,2.53
2022-09-26T11:20:03.511Z,2.53
2022-09-26T11:21:28.364Z,2.65
2022-09-26T11:22:41.422Z,2.72
2022-09-26T11:23:51.278Z,2.40
2022-09-26T11:25:06.294Z,2.58
2022-09-26T11:26:18.216Z,2.50
2022-09-26T11:27:31.411Z,2.83
2022-09-26T11:28:41.757Z,2.50
2022-09-26T11:30:03.051Z,2.38
2022-09-26T11:31:16.635Z,2.83
2022-09-26T11:32:30.391Z,2.90
2022-09-26T11:33:32.560Z,2.80
2022-09-26T11:35:15.853Z,2.88
2022-09-26T11:36:36.986Z,2.97
2022-09-26T11:37:55.116Z,2.90
2022-09-26T11:38:59.329Z,2.80
2022-09-26T11:40:34.907Z,2.67
2022-09-26T11:41:52.324Z,3.00
2022-09-26T11:43:13.590Z,3.03
2022-09-26T11:44:39.297Z,2.70
2022-09-26T11:46:15.234Z,3.15
2022-09-26T11:48:08.184Z,2.97
2022-09-26T11:49:50.085Z,2.90
2022-09-26T11:52:39.640Z,2.75
2022-09-26T11:53:58.452Z,3.55
2022-09-26T11:55:11.140Z,3.45
2022-09-26T11:56:37.984Z,3.55
2022-09-26T11:57:48.615Z,3.25
2022-09-26T11:59:00.685Z,3.60
2022-09-26T12:00:08.896Z,3.55
2022-09-26T12:01:27.220Z,3.42
2022-09-26T12:03:05.023Z,3.20
2022-09-26T12:04:27.176Z,3.30
2022-09-26T12:05:41.799Z,3.30
2022-09-26T12:06:55.129Z,3.38
2022-09-26T12:08:10.005Z,3.13
2022-09-26T12:09:24.294Z,3.03
2022-09-26T12:10:35.249Z,3.50
2022-09-26T12:11:49.157Z,2.97
2022-09-26T12:13:05.998Z,3.65
2022-09-26T12:14:22.035Z,3.08
2022-09-26T12:15:31.733Z,3.08
2022-09-26T12:16:45.726Z,3.58
2022-09-26T12:17:59.556Z,3.88
2022-09-26T12:19:10.466Z,3.45
2022-09-26T12:20:29.159Z,5.85
2022-09-26T12:21:41.937Z,3.85
2022-09-26T12:22:51.054Z,3.55
2022-09-26T12:23:57.222Z,3.95
2022-09-26T12:25:38.822Z,3.63
2022-09-26T12:26:51.198Z,3.25
2022-09-26T12:28:06.150Z,3.42
2022-09-26T12:29:24.299Z,3.63
2022-09-26T12:30:32.953Z,3.13
2022-09-26T12:31:51.264Z,3.33
2022-09-26T12:33:09.881Z,3.40
2022-09-26T12:34:38.546Z,3.20
2022-09-26T12:35:53.418Z,3.88
2022-09-26T12:37:09.803Z,4.25
2022-09-26T12:38:36.162Z,3.88
2022-09-26T12:40:17.667Z,3.55
2022-09-26T12:42:08.980Z,3.17
2022-09-26T12:43:30.032Z,3.03
2022-09-26T12:44:46.872Z,3.33
2022-09-26T12:46:06.419Z,2.80
2022-09-26T12:47:41.517Z,3.00
2022-09-26T12:48:58.617Z,2.78
2022-09-26T12:50:15.982Z,2.88
2022-09-26T12:51:31.005Z,3.10
2022-09-26T12:53:10.242Z,2.92
2022-09-26T12:54:54.713Z,2.80
2022-09-26T12:56:06.817Z,2.80
2022-09-26T12:57:22.355Z,2.60
2022-09-26T12:58:38.164Z,2.88
2022-09-26T13:00:09.641Z,2.85
2022-09-26T13:01:27.584Z,2.95
2022-09-26T13:02:51.894Z,2.60
2022-09-26T13:04:39.602Z,2.33
2022-09-26T13:05:58.076Z,2.70
2022-09-26T13:07:20.922Z,2.53
2022-09-26T13:08:31.318Z,2.60
2022-09-26T13:09:55.141Z,2.53
2022-09-26T13:11:12.885Z,2.65
2022-09-26T13:12:33.530Z,2.60
2022-09-26T13:14:09.023Z,2.40
2022-09-26T13:15:23.266Z,3.80
2022-09-26T13:16:35.735Z,3.00
2022-09-26T13:17:41.558Z,2.60
2022-09-26T13:18:48.343Z,2.90
2022-09-26T13:19:56.225Z,2.60
2022-09-26T13:21:04.732Z,2.80
2022-09-26T13:22:27.390Z,3.38
2022-09-26T13:23:35.788Z,2.80
2022-09-26T13:24:48.393Z,2.67
2022-09-26T13:25:55.833Z,2.63
2022-09-26T13:27:08.418Z,2.28
2022-09-26T13:28:18.998Z,2.72
2022-09-26T13:29:26.935Z,2.70
2022-09-26T13:30:35.670Z,2.53
2022-09-26T13:31:43.210Z,2.53
2022-09-26T13:32:56.002Z,2.47
2022-09-26T13:34:05.059Z,2.30
2022-09-26T13:35:16.918Z,2.53
2022-09-26T13:36:22.874Z,2.20
2022-09-26T13:37:37.106Z,2.30
2022-09-26T13:38:47.685Z,2.22
2022-09-26T13:39:53.901Z,2.28
2022-09-26T13:41:05.214Z,2.28
2022-09-26T13:42:14.760Z,2.10
2022-09-26T13:43:29.175Z,2.22
2022-09-26T13:44:55.774Z,2.03
2022-09-26T13:46:06.153Z,2.05
2022-09-26T13:47:19.756Z,2.05
2022-09-26T13:48:34.679Z,2.10
2022-09-26T13:49:53.312Z,2.00
2022-09-26T13:51:06.401Z,2.10
2022-09-26T13:52:22.746Z,2.17
2022-09-26T13:53:32.442Z,2.33
2022-09-26T13:54:49.041Z,2.13
2022-09-26T13:56:25.878Z,2.20
2022-09-26T13:57:39.970Z,2.30
2022-09-26T13:58:43.458Z,2.50
2022-09-26T13:59:54.461Z,2.38
2022-09-26T14:01:28.024Z,2.50
2022-09-26T14:02:31.947Z,2.40
2022-09-26T14:03:43.677Z,2.40
2022-09-26T14:04:46.823Z,2.45
2022-09-26T14:05:51.144Z,2.40
2022-09-26T14:07:34.445Z,2.70
2022-09-26T14:09:00.456Z,2.60
2022-09-26T14:10:34.825Z,2.78
2022-09-26T14:11:46.469Z,2.67
2022-09-26T14:13:06.593Z,2.80
2022-09-26T14:14:44.568Z,2.45
2022-09-26T14:16:05.374Z,2.90
2022-09-26T14:18:47.208Z,2.63
2022-09-26T14:19:55.507Z,2.80
2022-09-26T14:21:07.479Z,2.53
2022-09-26T14:22:35.361Z,2.58
2022-09-26T14:23:43.553Z,2.60
2022-09-26T14:24:47.666Z,2.30
2022-09-26T14:25:57.572Z,2.40
2022-09-26T14:27:26.838Z,2.90
2022-09-26T14:28:32.901Z,2.40
2022-09-26T14:29:45.122Z,2.83
2022-09-26T14:31:17.616Z,2.75
2022-09-26T14:32:24.029Z,2.60
2022-09-26T14:33:26.462Z,2.75
2022-09-26T14:34:33.805Z,2.33
2022-09-26T14:35:38.690Z,2.45
2022-09-26T14:36:41.939Z,2.42
2022-09-26T14:37:49.194Z,2.55
2022-09-26T14:38:52.758Z,2.50
2022-09-26T14:40:07.458Z,2.45
2022-09-26T14:41:19.236Z,2.40
2022-09-26T14:42:26.268Z,2.38
2022-09-26T14:43:31.290Z,2.60
2022-09-26T14:44:37.234Z,2.38
2022-09-26T14:45:48.873Z,2.30
2022-09-26T14:46:55.150Z,2.50
2022-09-26T14:48:08.197Z,2.38
2022-09-26T14:49:23.652Z,2.40
2022-09-26T14:50:30.192Z,2.60
2022-09-26T14:51:34.305Z,2.63
2022-09-26T14:52:38.905Z,2.58
2022-09-26T14:53:52.145Z,2.45
2022-09-26T14:55:01.425Z,2.40
2022-09-26T14:56:09.666Z,2.40
2022-09-26T14:57:22.267Z,2.38
2022-09-26T14:58:33.157Z,2.40
2022-09-26T14:59:44.091Z,2.20
2022-09-26T15:00:49.353Z,2.75
2022-09-26T15:01:57.624Z,2.78
2022-09-26T15:03:05.287Z,2.22
2022-09-26T15:04:16.359Z,2.35
2022-09-26T15:05:24.949Z,2.65
2022-09-26T15:06:30.520Z,2.80
2022-09-26T15:07:36.761Z,2.40
2022-09-26T15:08:40.076Z,2.58
2022-09-26T15:09:44.613Z,2.33
2022-09-26T15:10:49.549Z,2.47
2022-09-26T15:11:57.492Z,2.65
2022-09-26T15:13:08.860Z,2.10
2022-09-26T15:14:26.047Z,2.50
2022-09-26T15:15:48.113Z,4.03
2022-09-26T15:16:56.663Z,3.13
2022-09-26T15:18:08.175Z,3.17
2022-09-26T15:19:15.771Z,3.65
2022-09-26T15:20:21.703Z,3.22
2022-09-26T15:21:32.810Z,3.10
2022-09-26T15:22:35.295Z,3.78
2022-09-26T15:23:48.176Z,3.17
2022-09-26T15:24:54.744Z,4.40
2022-09-26T15:26:02.859Z,4.00
2022-09-26T15:27:11.897Z,2.67
2022-09-26T15:28:14.035Z,2.53
2022-09-26T15:29:18.140Z,2.63
2022-09-26T15:30:24.594Z,2.55
2022-09-26T15:31:30.884Z,2.38
2022-09-26T15:32:36.955Z,2.22
2022-09-26T15:33:39.436Z,2.08
2022-09-26T15:34:42.662Z,2.42
2022-09-26T15:35:53.480Z,2.35
2022-09-26T15:38:01.293Z,2.30
2022-09-26T15:39:25.698Z,2.40
2022-09-26T15:40:30.716Z,2.47
2022-09-26T15:41:51.475Z,2.35
2022-09-26T15:43:05.393Z,2.60
2022-09-26T15:44:09.719Z,2.20
2022-09-26T15:45:30.227Z,3.10
2022-09-26T15:46:32.738Z,3.17
2022-09-26T15:47:43.197Z,2.72
2022-09-26T15:48:46.688Z,2.50
2022-09-26T15:50:04.466Z,2.45
2022-09-26T15:51:13.040Z,2.20
2022-09-26T15:52:15.346Z,2.40
2022-09-26T15:53:25.297Z,2.40
2022-09-26T15:54:31.138Z,2.47
2022-09-26T15:55:35.596Z,2.40
2022-09-26T15:56:43.033Z,2.13
2022-09-26T15:57:48.188Z,2.40
2022-09-26T15:58:55.151Z,2.30
2022-09-26T15:59:59.405Z,2.10
2022-09-26T16:01:03.214Z,2.50
2022-09-26T16:02:22.393Z,2.33
2022-09-26T16:03:41.164Z,2.15
2022-09-26T16:04:44.430Z,2.17
2022-09-26T16:05:48.667Z,2.30
2022-09-26T16:06:58.094Z,2.17
2022-09-26T16:08:01.191Z,2.38
2022-09-26T16:09:10.606Z,2.28
2022-09-26T16:10:29.676Z,2.05
2022-09-26T16:11:33.008Z,2.28
2022-09-26T16:12:41.878Z,2.00
2022-09-26T16:13:49.525Z,2.08